Time;durP1;ratioP1;P1;durP2;ratioP2;P2;SDS_P1;SDS_P2;PMS_P1;PMS_P2;Temp;Humidity;BMP_temperature;BMP_pressure;BME280_temperature;BME280_humidity;BME280_pressure;Samples;Min_cycle;Max_cycle;Signal;HPM_P1;HPM_P2
2022/04/26 03:36:10;;;;;;;10.70;10.40;;;9.20;99.90;;;;;;5097823;28;20206;-83
2022/04/26 03:38:41;;;;;;;10.73;10.43;;;9.10;99.90;;;;;;5090593;28;20249;-83
2022/04/26 03:41:09;;;;;;;10.93;10.63;;;9.10;99.90;;;;;;5098592;28;20237;-83
2022/04/26 03:43:37;;;;;;;10.90;10.60;;;9.10;99.90;;;;;;5088744;28;20230;-83
2022/04/26 03:46:05;;;;;;;11.10;10.80;;;9.10;99.90;;;;;;5095993;28;20226;-83
2022/04/26 03:48:33;;;;;;;10.93;10.63;;;9.10;99.90;;;;;;5096275;28;20237;-83
2022/04/26 03:51:03;;;;;;;10.60;10.30;;;9.10;99.90;;;;;;5096974;28;20225;-83
2022/04/26 03:53:31;;;;;;;11.07;10.77;;;9.00;99.90;;;;;;5096934;28;20214;-83
2022/04/26 03:55:58;;;;;;;10.90;10.60;;;9.00;99.90;;;;;;5096252;28;20221;-83
2022/04/26 03:58:28;;;;;;;11.30;10.90;;;9.00;99.90;;;;;;5095689;28;20221;-83
2022/04/26 04:00:56;;;;;;;11.23;10.87;;;9.00;99.90;;;;;;5096693;27;20222;-83
2022/04/26 04:03:24;;;;;;;10.80;10.50;;;8.90;99.90;;;;;;5096029;28;20249;-83
2022/04/26 04:05:52;;;;;;;10.97;10.67;;;8.80;99.90;;;;;;5095175;28;20249;-83
2022/04/26 04:08:21;;;;;;;11.70;11.30;;;8.80;99.90;;;;;;5094885;28;20222;-83
2022/04/26 04:10:49;;;;;;;11.53;11.13;;;8.80;99.90;;;;;;5095983;28;20206;-84
2022/04/26 04:13:18;;;;;;;11.70;11.30;;;8.80;99.90;;;;;;5095723;28;20230;-83
2022/04/26 04:15:46;;;;;;;11.90;11.50;;;8.70;99.90;;;;;;5095783;28;20238;-83
2022/04/26 04:20:56;;;;;;;11.60;11.20;;;8.60;99.90;;;;;;5094725;28;20253;-83
2022/04/26 04:23:25;;;;;;;11.70;11.30;;;8.60;99.90;;;;;;5095169;28;20293;-83
2022/04/26 04:25:55;;;;;;;11.63;11.23;;;8.60;99.90;;;;;;5094825;28;20232;-83
2022/04/26 04:28:22;;;;;;;11.73;11.33;;;8.50;99.90;;;;;;5094461;28;20238;-84
2022/04/26 04:30:50;;;;;;;11.37;10.97;;;8.50;99.90;;;;;;5095630;28;20240;-84
2022/04/26 04:33:18;;;;;;;11.73;11.33;;;8.50;99.90;;;;;;5094741;28;20230;-84
2022/04/26 04:35:46;;;;;;;11.90;11.50;;;8.60;99.90;;;;;;5095302;28;20234;-83
2022/04/26 04:38:15;;;;;;;11.80;11.40;;;8.60;99.90;;;;;;5095069;28;20238;-83
2022/04/26 04:40:44;;;;;;;11.80;11.40;;;8.60;99.90;;;;;;5092509;28;20218;-83
2022/04/26 04:43:12;;;;;;;11.70;11.30;;;8.60;99.90;;;;;;5093259;28;20230;-84
2022/04/26 04:45:40;;;;;;;11.80;11.40;;;8.60;99.90;;;;;;5098233;28;20260;-83
2022/04/26 04:48:09;;;;;;;11.63;11.23;;;8.60;99.90;;;;;;5097838;28;20226;-83
2022/04/26 04:50:37;;;;;;;11.90;11.50;;;8.60;99.90;;;;;;5097455;28;20269;-83
2022/04/26 04:53:05;;;;;;;11.63;11.23;;;8.60;99.90;;;;;;5090824;28;20241;-84
2022/04/26 04:55:33;;;;;;;11.50;11.10;;;8.60;99.90;;;;;;5087062;28;20237;-84
2022/04/26 04:58:03;;;;;;;11.77;11.37;;;8.70;99.90;;;;;;5097035;28;20222;-83
2022/04/26 05:00:30;;;;;;;11.80;11.40;;;8.70;99.90;;;;;;5097660;28;20317;-83
2022/04/26 05:02:58;;;;;;;11.63;11.23;;;8.70;99.90;;;;;;5097755;28;20230;-83
2022/04/26 05:05:26;;;;;;;11.70;11.30;;;8.70;99.90;;;;;;5097885;28;20257;-84
2022/04/26 05:07:54;;;;;;;11.53;11.13;;;8.70;99.90;;;;;;5097552;28;20248;-84
2022/04/26 05:10:22;;;;;;;11.53;11.13;;;8.70;99.90;;;;;;5097877;28;20278;-83
2022/04/26 05:12:50;;;;;;;11.60;11.20;;;8.80;99.90;;;;;;5098528;28;20241;-82
2022/04/26 05:15:19;;;;;;;11.70;11.30;;;8.80;99.90;;;;;;5097721;28;20245;-83
2022/04/26 05:17:47;;;;;;;11.50;11.10;;;8.80;99.90;;;;;;5098084;28;20237;-83
2022/04/26 05:20:20;;;;;;;11.57;11.17;;;8.80;99.90;;;;;;5134336;22;20243;-80
2022/04/26 05:25:35;;;;;;;11.80;11.40;;;8.80;99.90;;;;;;5115291;28;20224;-81
2022/04/26 05:28:03;;;;;;;11.73;11.33;;;8.80;99.90;;;;;;5106111;28;20238;-81
2022/04/26 05:33:21;;;;;;;11.40;11.00;;;8.80;99.90;;;;;;5109911;28;20229;-81
2022/04/26 05:35:51;;;;;;;11.60;11.20;;;8.80;99.90;;;;;;5108892;28;20225;-80
2022/04/26 05:38:41;;;;;;;11.20;10.80;;;8.80;99.90;;;;;;5130043;28;20271;-81
2022/04/26 05:41:35;;;;;;;;;;;;;;;;;;;;;
2022/04/26 05:44:31;;;;;;;11.47;11.07;;;8.80;99.90;;;;;;5132536;27;20237;-81
2022/04/26 05:47:02;;;;;;;11.60;11.20;;;8.80;99.90;;;;;;5125080;27;20247;-81
2022/04/26 05:49:31;;;;;;;11.57;11.17;;;8.80;99.90;;;;;;5126380;28;20225;-80
2022/04/26 05:51:59;;;;;;;11.20;10.80;;;8.70;99.90;;;;;;5125427;28;20221;-80
2022/04/26 05:54:27;;;;;;;11.43;11.03;;;8.80;99.90;;;;;;5125712;28;20250;-79
2022/04/26 05:56:57;;;;;;;11.40;11.00;;;8.70;99.90;;;;;;5124918;28;20228;-80
2022/04/26 05:59:26;;;;;;;11.37;10.97;;;8.70;99.90;;;;;;5124193;28;20263;-80
2022/04/26 06:01:55;;;;;;;11.80;11.40;;;8.70;99.90;;;;;;5123952;28;20220;-80
2022/04/26 06:04:34;;;;;;;11.67;11.27;;;8.80;99.90;;;;;;5124397;28;20229;-80
2022/04/26 06:07:04;;;;;;;11.80;11.40;;;8.80;99.90;;;;;;5124289;28;20255;-80
2022/04/26 06:09:33;;;;;;;11.97;11.57;;;8.80;99.90;;;;;;5124529;28;20263;-80
2022/04/26 06:12:02;;;;;;;12.07;11.67;;;8.80;99.90;;;;;;5124282;28;20249;-80
2022/04/26 06:14:32;;;;;;;11.80;11.40;;;8.80;99.90;;;;;;5124337;28;20243;-79
2022/04/26 06:17:01;;;;;;;11.70;11.30;;;8.80;99.90;;;;;;5125080;28;20370;-80
2022/04/26 06:19:39;;;;;;;11.70;11.30;;;8.80;99.90;;;;;;5123451;27;20255;-80
2022/04/26 06:22:08;;;;;;;11.90;11.50;;;8.80;99.90;;;;;;5123996;28;20232;-79
2022/04/26 06:24:38;;;;;;;11.90;11.50;;;8.70;99.90;;;;;;5123917;28;20228;-81
2022/04/26 06:27:07;;;;;;;11.80;11.40;;;8.70;99.90;;;;;;5124562;28;20237;-80
2022/04/26 06:29:37;;;;;;;11.87;11.47;;;8.70;99.90;;;;;;5124610;28;20236;-80
2022/04/26 06:32:07;;;;;;;11.57;11.17;;;8.70;99.90;;;;;;5126065;28;20236;-80
2022/04/26 06:34:38;;;;;;;11.50;11.10;;;8.80;99.90;;;;;;5124655;28;20232;-80
2022/04/26 06:37:06;;;;;;;11.40;11.00;;;8.80;99.90;;;;;;5125087;28;20205;-80
2022/04/26 06:39:34;;;;;;;11.40;11.00;;;8.70;99.90;;;;;;5124279;28;20224;-80
2022/04/26 06:42:04;;;;;;;11.63;11.23;;;8.80;99.90;;;;;;5122644;28;20404;-79
2022/04/26 06:44:33;;;;;;;11.50;11.10;;;8.80;99.90;;;;;;5123059;28;20228;-80
2022/04/26 06:47:03;;;;;;;11.60;11.20;;;8.80;99.90;;;;;;5122949;28;20274;-80
2022/04/26 06:49:32;;;;;;;11.77;11.37;;;8.90;99.90;;;;;;5122927;28;20248;-81
2022/04/26 06:52:11;;;;;;;11.37;10.97;;;8.90;99.90;;;;;;5123011;28;20282;-80
2022/04/26 06:54:40;;;;;;;11.80;11.40;;;8.90;99.90;;;;;;5122564;28;20235;-80
2022/04/26 06:57:10;;;;;;;11.80;11.40;;;8.90;99.90;;;;;;5122286;28;20228;-80
2022/04/26 06:59:39;;;;;;;11.70;11.30;;;8.90;99.90;;;;;;5123696;28;20231;-80
2022/04/26 07:02:09;;;;;;;11.80;11.40;;;8.90;99.90;;;;;;5123547;27;20236;-80
2022/04/26 07:04:38;;;;;;;11.73;11.33;;;8.90;99.90;;;;;;5124265;28;20217;-80
2022/04/26 07:07:16;;;;;;;11.73;11.33;;;8.90;99.90;;;;;;5128370;28;20239;-80
2022/04/26 07:09:46;;;;;;;11.67;11.27;;;8.90;99.90;;;;;;5138350;28;20240;-80
2022/04/26 07:12:15;;;;;;;12.20;11.80;;;8.90;99.90;;;;;;5138816;28;20224;-81
2022/04/26 07:15:29;;;;;;;12.07;11.67;;;8.90;99.90;;;;;;5139183;28;20366;-82
2022/04/26 07:17:58;;;;;;;11.67;11.27;;;8.90;99.90;;;;;;5142783;27;20201;-83
2022/04/26 07:20:30;;;;;;;11.93;11.53;;;9.00;99.90;;;;;;5138976;27;20240;-82
2022/04/26 07:23:00;;;;;;;11.77;11.37;;;9.00;99.90;;;;;;5142070;27;20205;-81
2022/04/26 07:25:28;;;;;;;11.60;11.20;;;9.00;99.90;;;;;;5141968;27;20223;-80
2022/04/26 07:27:56;;;;;;;11.83;11.43;;;9.00;99.90;;;;;;5142435;27;20209;-79
2022/04/26 07:30:32;;;;;;;11.97;11.57;;;9.00;99.90;;;;;;5140406;27;20263;-79
2022/04/26 07:35:44;;;;;;;12.00;11.60;;;9.00;99.90;;;;;;5131788;28;20205;-81
2022/04/26 07:38:16;;;;;;;11.60;11.20;;;9.10;99.90;;;;;;5128546;28;20236;-81
2022/04/26 07:40:44;;;;;;;11.33;10.93;;;9.00;99.90;;;;;;5127301;28;20237;-82
2022/04/26 07:43:12;;;;;;;11.70;11.30;;;9.00;99.90;;;;;;5123115;28;20217;-82
2022/04/26 07:45:50;;;;;;;11.43;11.03;;;9.00;99.90;;;;;;5120984;28;20272;-82
2022/04/26 07:48:22;;;;;;;11.33;10.93;;;9.10;99.90;;;;;;5120318;28;20241;-81
2022/04/26 07:50:51;;;;;;;11.60;11.20;;;9.10;99.90;;;;;;5110349;28;20225;-82
2022/04/26 07:53:21;;;;;;;11.00;10.60;;;9.10;99.90;;;;;;5123667;28;20225;-81
2022/04/26 07:55:50;;;;;;;11.30;10.90;;;9.10;99.90;;;;;;5123086;28;20228;-82
2022/04/26 07:58:27;;;;;;;11.60;11.20;;;9.10;99.90;;;;;;5124144;28;20221;-78
2022/04/26 08:00:55;;;;;;;11.20;10.80;;;9.10;99.90;;;;;;5121027;28;20232;-79
2022/04/26 08:06:05;;;;;;;11.33;10.93;;;9.20;99.90;;;;;;5119938;28;20250;-82
2022/04/26 08:08:35;;;;;;;11.77;11.37;;;9.20;99.90;;;;;;5122374;28;20240;-80
2022/04/26 08:11:03;;;;;;;11.17;10.77;;;9.20;99.90;;;;;;5121389;27;20232;-80
2022/04/26 08:13:31;;;;;;;11.40;11.00;;;9.20;99.90;;;;;;5122176;27;20225;-80
2022/04/26 08:16:00;;;;;;;11.73;11.33;;;9.30;99.90;;;;;;5121929;27;20248;-81
2022/04/26 08:18:34;;;;;;;11.00;10.60;;;9.30;99.90;;;;;;5124088;28;20224;-81
2022/04/26 08:21:02;;;;;;;11.27;10.87;;;9.40;99.90;;;;;;5123577;28;20342;-81
2022/04/26 08:23:31;;;;;;;11.50;11.10;;;9.40;99.90;;;;;;5125374;28;20212;-81
2022/04/26 08:28:47;;;;;;;11.20;10.80;;;9.40;99.90;;;;;;5125356;28;20265;-79
2022/04/26 08:31:15;;;;;;;10.93;10.60;;;9.40;99.90;;;;;;5127763;28;20220;-79
2022/04/26 08:33:45;;;;;;;11.10;10.70;;;9.40;99.90;;;;;;5127612;28;20229;-79
2022/04/26 08:36:26;;;;;;;11.30;10.90;;;9.40;99.90;;;;;;5125732;28;20243;-79
2022/04/26 08:38:53;;;;;;;11.47;11.07;;;9.40;99.90;;;;;;5125604;28;20236;-79
2022/04/26 08:41:24;;;;;;;11.33;10.93;;;9.40;99.90;;;;;;5141082;27;20296;-78
2022/04/26 08:43:52;;;;;;;11.40;11.00;;;9.50;99.90;;;;;;5125060;28;20224;-80
2022/04/26 08:46:20;;;;;;;11.40;11.00;;;9.50;99.90;;;;;;5124314;28;20255;-80
2022/04/26 08:51:38;;;;;;;11.13;10.73;;;9.60;99.90;;;;;;5126381;28;20213;-82
2022/04/26 08:54:06;;;;;;;11.67;11.27;;;9.60;99.90;;;;;;5125924;28;20220;-82
2022/04/26 08:56:45;;;;;;;11.20;10.80;;;9.60;99.90;;;;;;5127040;28;20278;-81
2022/04/26 08:59:13;;;;;;;11.00;10.70;;;9.60;99.90;;;;;;5127444;28;20235;-81
2022/04/26 09:01:53;;;;;;;11.10;10.77;;;9.50;99.90;;;;;;5126646;28;20294;-81
2022/04/26 09:04:21;;;;;;;10.77;10.47;;;9.50;99.90;;;;;;5126062;28;20232;-82
2022/04/26 09:07:00;;;;;;;11.17;10.77;;;9.60;99.90;;;;;;5125736;28;20240;-82
2022/04/26 09:09:32;;;;;;;11.07;10.73;;;9.70;99.90;;;;;;5126292;28;20695;-82
2022/04/26 09:12:07;;;;;;;10.53;10.23;;;9.80;99.90;;;;;;5126014;28;20216;-82
2022/04/26 09:14:37;;;;;;;10.90;10.60;;;9.90;99.90;;;;;;5130566;27;20276;-81
2022/04/26 09:17:07;;;;;;;11.10;10.70;;;10.10;99.90;;;;;;5139038;27;20221;-81
2022/04/26 09:19:46;;;;;;;10.80;10.50;;;10.10;99.90;;;;;;5138630;27;20242;-81
2022/04/26 09:22:25;;;;;;;10.73;10.43;;;10.10;99.90;;;;;;5127344;28;20239;-82
2022/04/26 09:25:03;;;;;;;10.77;10.47;;;10.20;99.90;;;;;;5126815;27;20262;-81
2022/04/26 09:27:49;;;;;;;10.57;10.27;;;10.10;99.90;;;;;;5133590;28;20240;-82
2022/04/26 09:30:17;;;;;;;10.80;10.50;;;9.90;99.90;;;;;;5126011;28;20328;-83
2022/04/26 09:32:48;;;;;;;11.10;10.80;;;9.90;99.90;;;;;;5126546;28;20229;-82
2022/04/26 09:35:20;;;;;;;10.50;10.20;;;9.90;99.90;;;;;;5128715;28;20225;-82
2022/04/26 09:37:48;;;;;;;10.50;10.20;;;9.90;99.90;;;;;;5127044;27;20234;-82
2022/04/26 09:40:17;;;;;;;11.10;10.80;;;9.90;99.90;;;;;;5126811;28;20273;-83
2022/04/26 09:42:55;;;;;;;10.70;10.40;;;9.90;99.90;;;;;;5126939;28;20287;-84
2022/04/26 09:45:25;;;;;;;10.67;10.37;;;9.90;99.90;;;;;;5125621;28;20233;-81
2022/04/26 09:48:04;;;;;;;10.60;10.30;;;9.90;99.90;;;;;;5136361;28;20227;-82
2022/04/26 09:50:33;;;;;;;10.80;10.50;;;9.90;99.90;;;;;;5123266;28;20260;-81
2022/04/26 09:53:03;;;;;;;10.37;10.07;;;10.00;99.90;;;;;;5127274;28;20232;-82
2022/04/26 09:55:31;;;;;;;10.57;10.27;;;10.10;99.90;;;;;;5125565;28;20225;-81
2022/04/26 09:58:19;;;;;;;10.50;10.20;;;10.30;99.90;;;;;;5126157;28;20236;-82
2022/04/26 10:00:49;;;;;;;11.10;10.80;;;10.20;99.90;;;;;;5126196;28;20236;-82
2022/04/26 10:03:26;;;;;;;10.67;10.37;;;10.30;99.90;;;;;;5126685;28;20235;-82
2022/04/26 10:06:05;;;;;;;10.70;10.40;;;10.30;99.90;;;;;;5125412;28;20235;-82
2022/04/26 10:08:36;;;;;;;10.70;10.40;;;10.40;99.90;;;;;;5125727;28;20237;-82
2022/04/26 10:11:05;;;;;;;11.00;10.70;;;10.40;99.90;;;;;;5125571;28;20234;-81
2022/04/26 10:13:43;;;;;;;10.67;10.37;;;10.40;99.90;;;;;;5125750;27;20282;-82
2022/04/26 10:16:15;;;;;;;10.80;10.50;;;10.30;99.90;;;;;;5123352;28;20259;-82
2022/04/26 10:18:49;;;;;;;10.80;10.50;;;10.30;99.90;;;;;;5123870;28;20232;-81
2022/04/26 10:21:47;;;;;;;10.63;10.33;;;10.40;99.90;;;;;;5123797;28;20420;-82
2022/04/26 10:24:23;;;;;;;10.30;10.00;;;10.50;99.90;;;;;;5125572;28;20235;-82
2022/04/26 10:26:53;;;;;;;10.13;9.83;;;10.50;99.90;;;;;;5125774;28;20255;-82
2022/04/26 10:32:11;;;;;;;10.30;10.00;;;10.50;99.90;;;;;;5124448;28;20225;-83
2022/04/26 10:34:40;;;;;;;10.60;10.30;;;10.40;99.90;;;;;;5127638;28;20225;-82
2022/04/26 10:37:35;;;;;;;10.47;10.17;;;10.30;99.90;;;;;;5125475;27;20289;-82
2022/04/26 10:40:04;;;;;;;10.33;10.03;;;10.20;99.90;;;;;;5122505;28;20240;-82
2022/04/26 10:42:35;;;;;;;10.57;10.27;;;10.20;99.90;;;;;;5124736;28;20240;-83
2022/04/26 10:45:23;;;;;;;10.43;10.13;;;10.20;99.90;;;;;;5123849;28;20225;-82
2022/04/26 10:47:59;;;;;;;10.87;10.57;;;10.10;99.90;;;;;;5120245;28;20282;-82
2022/04/26 10:50:37;;;;;;;10.47;10.17;;;10.20;99.90;;;;;;5124210;28;20319;-83
2022/04/26 10:53:45;;;;;;;10.00;9.70;;;10.20;99.90;;;;;;5125700;28;20286;-85
2022/04/26 10:56:13;;;;;;;10.47;10.17;;;10.10;99.90;;;;;;5125498;28;20251;-83
2022/04/26 11:01:36;;;;;;;10.67;10.37;;;10.00;99.90;;;;;;5127521;22;20237;-82
2022/04/26 11:04:06;;;;;;;10.60;10.30;;;10.00;99.90;;;;;;5104409;28;20237;-81
2022/04/26 11:06:36;;;;;;;10.50;10.20;;;10.00;99.90;;;;;;5106529;28;20221;-82
2022/04/26 11:09:14;;;;;;;10.30;10.00;;;10.00;99.90;;;;;;5106601;28;20260;-81
2022/04/26 11:11:51;;;;;;;10.53;10.23;;;10.10;99.90;;;;;;5107985;28;20225;-85
2022/04/26 11:14:21;;;;;;;10.57;10.27;;;10.10;99.90;;;;;;5108441;28;20291;-84
2022/04/26 11:17:09;;;;;;;10.40;10.10;;;10.10;99.90;;;;;;5110029;28;20264;-83
2022/04/26 11:19:40;;;;;;;10.23;9.93;;;10.10;99.90;;;;;;5110335;28;20233;-83
2022/04/26 11:22:09;;;;;;;10.53;10.23;;;10.20;99.90;;;;;;5141650;22;20228;-84
2022/04/26 11:30:11;;;;;;;9.87;9.57;;;10.60;99.90;;;;;;5142467;27;20225;-84
2022/04/26 11:32:48;;;;;;;10.10;9.80;;;10.80;99.90;;;;;;5141048;27;20209;-83
2022/04/26 11:35:19;;;;;;;9.57;9.27;;;10.90;99.90;;;;;;5133254;27;20208;-84
2022/04/26 11:37:48;;;;;;;9.60;9.30;;;11.00;99.90;;;;;;5141188;27;20251;-79
2022/04/26 11:40:27;;;;;;;9.60;9.30;;;11.10;99.90;;;;;;5141791;27;20224;-83
2022/04/26 11:42:57;;;;;;;10.00;9.70;;;11.20;99.90;;;;;;5140769;27;20232;-85
2022/04/26 11:45:28;;;;;;;9.53;9.23;;;11.20;99.90;;;;;;5139676;27;20209;-87
2022/04/26 11:47:59;;;;;;;9.77;9.47;;;11.20;99.90;;;;;;5141065;27;20220;-84
2022/04/26 11:50:31;;;;;;;10.00;9.70;;;11.20;99.90;;;;;;5118973;28;20225;-83
2022/04/26 11:53:03;;;;;;;10.30;10.00;;;11.10;99.90;;;;;;5120233;28;20274;-85
2022/04/26 11:55:33;;;;;;;9.97;9.67;;;11.00;99.90;;;;;;5119454;28;20229;-85
2022/04/26 11:58:20;;;;;;;9.97;9.67;;;11.10;99.90;;;;;;5118511;28;20213;-84
2022/04/26 12:00:53;;;;;;;10.20;9.90;;;11.20;99.90;;;;;;5117732;28;20232;-84
2022/04/26 12:03:29;;;;;;;10.07;9.77;;;11.20;99.90;;;;;;5098880;28;20240;-84
2022/04/26 12:06:02;;;;;;;9.90;9.60;;;11.20;99.90;;;;;;5101327;28;20260;-84
2022/04/26 12:08:32;;;;;;;9.80;9.50;;;11.10;99.90;;;;;;5101837;28;20221;-83
2022/04/26 12:11:22;;;;;;;10.03;9.73;;;11.00;99.90;;;;;;5101681;28;20225;-85
2022/04/26 12:14:11;;;;;;;9.47;9.17;;;11.20;99.90;;;;;;5100623;28;20237;-84
2022/04/26 12:16:51;;;;;;;8.80;8.60;;;11.40;99.90;;;;;;5102537;28;20320;-84
2022/04/26 12:19:22;;;;;;;8.77;8.57;;;11.50;99.90;;;;;;5101499;28;20239;-84
2022/04/26 12:21:55;;;;;;;8.60;8.40;;;11.70;99.90;;;;;;5100905;28;20229;-85
2022/04/26 12:24:26;;;;;;;8.27;8.07;;;11.70;99.90;;;;;;5101305;28;20229;-84
2022/04/26 12:26:56;;;;;;;8.93;8.73;;;11.90;99.90;;;;;;5104070;28;20229;-85
2022/04/26 12:29:25;;;;;;;8.80;8.60;;;12.10;99.90;;;;;;5099441;28;20225;-85
2022/04/26 12:32:06;;;;;;;8.20;8.00;;;12.30;99.90;;;;;;5101715;28;20226;-84
2022/04/26 12:34:36;;;;;;;8.50;8.30;;;12.50;99.90;;;;;;5100505;28;20236;-84
2022/04/26 12:37:09;;;;;;;8.10;7.90;;;12.50;99.90;;;;;;5099622;28;20222;-83
2022/04/26 12:39:55;;;;;;;8.20;8.00;;;12.40;99.90;;;;;;5099629;28;20229;-83
2022/04/26 12:42:34;;;;;;;7.80;7.60;;;12.60;99.90;;;;;;5098143;28;20261;-83
2022/04/26 12:45:05;;;;;;;8.47;8.27;;;12.80;99.90;;;;;;5098885;28;20330;-83
2022/04/26 12:51:20;;;;;;;8.43;8.23;;;12.30;99.90;;;;;;5100073;28;20226;-85
2022/04/26 12:53:50;;;;;;;8.20;8.00;;;12.20;99.90;;;;;;5101318;28;20308;-85
2022/04/26 12:56:20;;;;;;;8.90;8.70;;;12.10;99.90;;;;;;5099114;28;20268;-85
2022/04/26 12:58:50;;;;;;;8.83;8.63;;;12.20;99.90;;;;;;5099755;28;20230;-84
2022/04/26 13:01:20;;;;;;;9.10;8.90;;;12.20;99.90;;;;;;5102816;28;20232;-85
2022/04/26 13:03:50;;;;;;;8.50;8.30;;;12.30;99.90;;;;;;5105241;28;20226;-85
2022/04/26 13:06:20;;;;;;;8.37;8.17;;;12.40;99.90;;;;;;5104873;28;20233;-85
2022/04/26 13:08:53;;;;;;;8.30;8.10;;;12.40;99.90;;;;;;5103993;28;20233;-85
2022/04/26 13:11:30;;;;;;;8.30;8.10;;;12.50;99.90;;;;;;5107767;28;20214;-85
2022/04/26 13:13:59;;;;;;;8.33;8.13;;;12.50;99.90;;;;;;5122494;28;20247;-84
2022/04/26 13:16:26;;;;;;;9.30;9.00;;;12.50;99.90;;;;;;5122849;28;20269;-85
2022/04/26 13:18:54;;;;;;;9.27;8.97;;;12.40;99.90;;;;;;5123048;28;20217;-85
2022/04/26 13:21:30;;;;;;;8.90;8.70;;;12.10;99.90;;;;;;5122895;28;20228;-86
2022/04/26 13:24:02;;;;;;;8.30;8.10;;;12.10;99.90;;;;;;5121766;28;20281;-85
2022/04/26 13:26:34;;;;;;;8.20;8.00;;;11.90;99.90;;;;;;5115481;28;20260;-85
2022/04/26 13:29:03;;;;;;;8.33;8.13;;;12.00;99.90;;;;;;5111746;28;20233;-85
2022/04/26 13:31:31;;;;;;;8.63;8.43;;;12.20;99.90;;;;;;5109792;28;20243;-85
2022/04/26 13:34:02;;;;;;;8.47;8.27;;;12.50;99.90;;;;;;5108748;28;20217;-84
2022/04/26 13:36:34;;;;;;;8.57;8.37;;;12.70;99.90;;;;;;5104597;28;20229;-85
2022/04/26 13:39:02;;;;;;;8.63;8.43;;;12.80;99.90;;;;;;5107625;28;20235;-86
2022/04/26 13:41:33;;;;;;;8.67;8.47;;;13.10;99.90;;;;;;5103765;28;20240;-87
2022/04/26 13:46:57;;;;;;;8.30;8.10;;;13.20;99.90;;;;;;5102298;28;20221;-87
2022/04/26 13:49:46;;;;;;;8.30;8.10;;;12.80;99.90;;;;;;5102954;28;20235;-88
2022/04/26 13:55:07;;;;;;;8.50;8.30;;;12.80;99.90;;;;;;5104186;28;20225;-86
2022/04/26 14:00:25;;;;;;;8.47;8.27;;;12.90;99.90;;;;;;5103381;28;20265;-86
2022/04/26 14:02:56;;;;;;;8.60;8.40;;;13.00;99.90;;;;;;5104092;28;20241;-87
2022/04/26 14:05:28;;;;;;;8.27;8.07;;;13.10;99.90;;;;;;5103487;28;20317;-87
2022/04/26 14:11:53;;;;;;;8.60;8.40;;;13.10;99.90;;;;;;5068743;28;20218;-87
2022/04/26 14:23:21;;;;;;;8.60;8.40;;;13.10;99.90;;;;;;5138277;27;20224;-84
2022/04/26 14:28:37;;;;;;;8.47;8.27;;;13.20;99.90;;;;;;5132639;28;20265;-87
2022/04/26 14:31:07;;;;;;;9.20;8.90;;;13.30;99.90;;;;;;5136985;28;20236;-87
2022/04/26 14:33:42;;;;;;;8.93;8.73;;;13.30;99.90;;;;;;5129005;28;20239;-87
2022/04/26 14:36:11;;;;;;;8.60;8.40;;;13.40;99.90;;;;;;5124125;28;20217;-87
2022/04/26 14:38:41;;;;;;;8.97;8.77;;;13.50;99.90;;;;;;5123670;28;20229;-87
2022/04/26 14:41:16;;;;;;;8.80;8.60;;;13.20;99.90;;;;;;5123114;28;20228;-87
2022/04/26 14:43:46;;;;;;;8.83;8.63;;;13.10;99.90;;;;;;5123089;28;20281;-85
2022/04/26 14:46:19;;;;;;;8.70;8.50;;;13.10;99.90;;;;;;5122530;28;20236;-88
2022/04/26 14:48:47;;;;;;;8.53;8.33;;;13.20;99.90;;;;;;5122731;28;20217;-87
2022/04/26 14:51:22;;;;;;;8.40;8.20;;;13.30;99.90;;;;;;5123504;28;20229;-87
2022/04/26 14:54:01;;;;;;;8.40;8.20;;;13.30;99.90;;;;;;5124207;28;20228;-87
2022/04/26 14:56:35;;;;;;;9.00;8.80;;;13.30;99.90;;;;;;5129630;28;20216;-87
2022/04/26 14:59:12;;;;;;;8.60;8.40;;;13.50;99.90;;;;;;5131927;28;20227;-88
2022/04/26 15:04:35;;;;;;;9.20;8.90;;;13.60;99.90;;;;;;5123243;28;20772;-88
2022/04/26 15:07:14;;;;;;;9.00;8.80;;;13.30;99.90;;;;;;5124136;28;20300;-87
2022/04/26 15:09:52;;;;;;;8.77;8.57;;;13.30;99.90;;;;;;5123458;28;20217;-87
2022/04/26 15:21:12;;;;;;;9.33;9.03;;;13.10;99.90;;;;;;5136983;28;20220;-87
2022/04/26 15:23:39;;;;;;;9.20;8.90;;;12.90;99.90;;;;;;5127785;28;20237;-84
2022/04/26 15:26:11;;;;;;;8.73;8.53;;;12.70;99.90;;;;;;5123251;28;20233;-84
2022/04/26 15:28:39;;;;;;;8.87;8.67;;;12.70;99.90;;;;;;5122544;28;20296;-81
2022/04/26 15:31:06;;;;;;;8.37;8.17;;;12.60;99.90;;;;;;5123009;28;20225;-81
2022/04/26 15:33:38;;;;;;;8.40;8.20;;;12.50;99.90;;;;;;5122417;28;20259;-84
2022/04/26 15:36:08;;;;;;;8.63;8.43;;;12.60;99.90;;;;;;5122380;28;20328;-81
2022/04/26 15:38:36;;;;;;;8.57;8.37;;;12.60;99.90;;;;;;5130138;28;20217;-81
2022/04/26 15:41:05;;;;;;;8.67;8.47;;;12.60;99.90;;;;;;5126834;28;20243;-81
2022/04/26 15:43:35;;;;;;;8.60;8.40;;;12.70;99.90;;;;;;5123864;28;20255;-82
2022/04/26 15:46:06;;;;;;;8.47;8.27;;;12.60;99.90;;;;;;5125247;28;20237;-82
2022/04/26 15:48:38;;;;;;;8.50;8.30;;;12.50;99.90;;;;;;5126322;28;20233;-82
2022/04/26 15:51:06;;;;;;;8.43;8.23;;;12.40;99.90;;;;;;5124785;28;20324;-83
2022/04/26 15:53:35;;;;;;;8.67;8.47;;;12.50;99.90;;;;;;5117346;28;20243;-82
2022/04/26 15:56:03;;;;;;;8.73;8.53;;;12.40;99.90;;;;;;5124715;28;20233;-83
2022/04/26 15:58:36;;;;;;;8.17;7.97;;;12.20;99.90;;;;;;5123824;28;20239;-82
2022/04/26 16:01:04;;;;;;;8.70;8.50;;;12.10;99.90;;;;;;5122305;28;20224;-83
2022/04/26 16:03:32;;;;;;;8.93;8.73;;;12.30;99.90;;;;;;5122537;28;20289;-82
2022/04/26 16:06:00;;;;;;;8.50;8.30;;;12.30;99.90;;;;;;5121781;28;20232;-83
2022/04/26 16:08:27;;;;;;;8.10;7.90;;;12.40;99.90;;;;;;5121191;28;20250;-82
2022/04/26 16:22:05;;;;;;;8.20;8.00;;;12.50;99.90;;;;;;5122587;28;20225;-85
2022/04/26 16:24:38;;;;;;;8.70;8.50;;;12.50;99.90;;;;;;5121340;28;20251;-85
2022/04/26 16:27:06;;;;;;;8.60;8.40;;;12.40;99.90;;;;;;5122492;28;20256;-84
2022/04/26 16:29:36;;;;;;;8.63;8.43;;;12.20;99.90;;;;;;5121529;28;20332;-84
2022/04/26 16:32:04;;;;;;;8.00;7.80;;;12.00;99.90;;;;;;5123752;28;20221;-84
2022/04/26 16:34:32;;;;;;;8.03;7.83;;;11.80;99.90;;;;;;5132032;28;20232;-84
2022/04/26 16:37:03;;;;;;;7.90;7.70;;;11.70;99.90;;;;;;5122672;28;20240;-84
2022/04/26 16:39:31;;;;;;;8.27;8.07;;;11.60;99.90;;;;;;5121619;28;20220;-84
2022/04/26 16:41:59;;;;;;;7.80;7.60;;;11.70;99.90;;;;;;5121025;28;20298;-85
2022/04/26 16:44:27;;;;;;;7.90;7.70;;;11.60;99.90;;;;;;5121792;28;20243;-85
2022/04/26 16:46:57;;;;;;;7.97;7.77;;;11.60;99.90;;;;;;5122596;28;20227;-84
2022/04/26 16:49:24;;;;;;;7.83;7.63;;;11.60;99.90;;;;;;5121186;28;20236;-84
2022/04/26 16:51:52;;;;;;;8.07;7.87;;;11.60;99.90;;;;;;5121715;28;20232;-85
2022/04/26 16:54:20;;;;;;;7.60;7.40;;;11.50;99.90;;;;;;5122036;28;20255;-84
2022/04/26 16:56:48;;;;;;;8.30;8.10;;;11.40;99.90;;;;;;5121328;28;20233;-84
2022/04/26 16:59:17;;;;;;;8.73;8.53;;;11.40;99.90;;;;;;5120959;28;20224;-84
2022/04/26 17:01:48;;;;;;;9.07;8.87;;;11.20;99.90;;;;;;5121227;28;20232;-84
2022/04/26 17:04:21;;;;;;;9.77;9.47;;;11.00;99.90;;;;;;5120917;28;20231;-85
2022/04/26 17:06:49;;;;;;;9.67;9.37;;;10.80;99.90;;;;;;5120702;28;20233;-84
2022/04/26 17:09:20;;;;;;;9.57;9.27;;;10.70;99.90;;;;;;5131162;28;20247;-84
2022/04/26 17:11:48;;;;;;;9.63;9.33;;;10.50;99.90;;;;;;5137692;28;20228;-84
2022/04/26 17:14:21;;;;;;;10.30;10.00;;;10.40;99.90;;;;;;5129438;28;20280;-81
2022/04/26 17:16:51;;;;;;;10.97;10.67;;;10.20;99.90;;;;;;5124008;28;20263;-83
2022/04/26 17:19:21;;;;;;;11.17;10.87;;;10.10;99.90;;;;;;5123413;28;20229;-83
2022/04/26 17:21:49;;;;;;;11.17;10.87;;;10.00;99.90;;;;;;5122199;28;20278;-83
2022/04/26 17:27:02;;;;;;;10.87;10.57;;;9.70;99.90;;;;;;5123415;28;20240;-82
2022/04/26 17:29:30;;;;;;;10.80;10.50;;;9.50;99.90;;;;;;5122730;28;20244;-83
2022/04/26 17:31:58;;;;;;;10.50;10.20;;;9.50;99.90;;;;;;5121110;28;20241;-83
2022/04/26 17:34:28;;;;;;;10.40;10.10;;;9.30;99.90;;;;;;5120598;28;20232;-83
2022/04/26 17:36:56;;;;;;;10.30;10.00;;;9.20;99.90;;;;;;5120347;28;20229;-83
2022/04/26 17:39:28;;;;;;;10.30;10.00;;;9.10;99.90;;;;;;5121198;28;20225;-83
2022/04/26 17:41:56;;;;;;;10.13;9.83;;;8.90;99.90;;;;;;5122113;28;20233;-84
2022/04/26 17:44:24;;;;;;;10.17;9.87;;;8.90;99.90;;;;;;5121230;28;20727;-83
2022/04/26 17:46:52;;;;;;;10.80;10.50;;;8.90;99.90;;;;;;5123033;27;20258;-84
2022/04/26 17:49:20;;;;;;;10.60;10.30;;;8.80;99.90;;;;;;5127563;28;20221;-82
2022/04/26 17:51:50;;;;;;;10.80;10.50;;;8.70;99.90;;;;;;5123936;28;20335;-83
2022/04/26 17:57:03;;;;;;;11.00;10.60;;;8.50;99.90;;;;;;5124015;28;20213;-82
2022/04/26 17:59:31;;;;;;;10.60;10.30;;;8.60;99.90;;;;;;5122884;28;20260;-82
2022/04/26 18:01:59;;;;;;;10.90;10.50;;;8.60;99.90;;;;;;5122912;28;20235;-82
2022/04/26 18:04:35;;;;;;;10.63;10.33;;;8.60;99.90;;;;;;5123259;28;20236;-85